createdAt,value
2022-10-30T00:00:10.020Z,9.93
2022-10-30T00:00:20.539Z,9.94
2022-10-30T00:00:31.040Z,9.93
2022-10-30T00:00:41.577Z,9.93
2022-10-30T00:00:52.073Z,9.91
2022-10-30T00:01:02.584Z,9.93
2022-10-30T00:01:13.156Z,9.94
2022-10-30T00:01:23.680Z,9.94
2022-10-30T00:01:34.143Z,9.93
2022-10-30T00:01:44.722Z,9.90
2022-10-30T00:01:55.281Z,9.89
2022-10-30T00:02:05.792Z,9.89
2022-10-30T00:02:16.338Z,9.89
2022-10-30T00:02:26.752Z,9.89
2022-10-30T00:02:37.308Z,9.89
2022-10-30T00:02:47.810Z,9.89
2022-10-30T00:02:58.652Z,9.90
2022-10-30T00:03:08.821Z,9.90
2022-10-30T00:03:19.369Z,9.90
2022-10-30T00:03:29.759Z,9.91
2022-10-30T00:03:40.283Z,9.91
2022-10-30T00:03:50.784Z,9.90
2022-10-30T00:04:01.327Z,9.90
2022-10-30T00:04:11.825Z,9.91
2022-10-30T00:04:22.320Z,9.90
2022-10-30T00:04:32.830Z,9.90
2022-10-30T00:04:43.342Z,9.91
2022-10-30T00:04:53.854Z,9.90
2022-10-30T00:05:04.363Z,9.89
2022-10-30T00:05:14.881Z,9.89
2022-10-30T00:05:25.385Z,9.90
2022-10-30T00:05:35.899Z,9.89
2022-10-30T00:05:46.425Z,9.89
2022-10-30T00:05:56.923Z,9.87
2022-10-30T00:06:07.486Z,9.87
2022-10-30T00:06:28.471Z,9.86
2022-10-30T00:06:38.983Z,9.87
2022-10-30T00:06:49.489Z,9.86
2022-10-30T00:07:00.006Z,9.86
2022-10-30T00:07:10.514Z,9.86
2022-10-30T00:07:21.028Z,9.86
2022-10-30T00:07:31.564Z,9.84
2022-10-30T00:07:42.058Z,9.84
2022-10-30T00:07:52.566Z,9.84
2022-10-30T00:08:03.086Z,9.84
2022-10-30T00:08:13.594Z,9.84
2022-10-30T00:08:24.100Z,9.83
2022-10-30T00:08:34.621Z,9.83
2022-10-30T00:08:45.141Z,9.83
2022-10-30T00:08:55.673Z,9.83
2022-10-30T00:09:06.150Z,9.81
2022-10-30T00:09:16.667Z,9.84
2022-10-30T00:09:27.175Z,9.86
2022-10-30T00:09:37.691Z,9.83
2022-10-30T00:09:48.206Z,9.81
2022-10-30T00:09:58.718Z,9.81
2022-10-30T00:10:09.239Z,9.81
2022-10-30T00:10:19.776Z,9.79
2022-10-30T00:10:30.262Z,9.81
2022-10-30T00:10:40.771Z,9.79
2022-10-30T00:10:51.295Z,9.79
2022-10-30T00:11:01.795Z,9.78
2022-10-30T00:11:12.310Z,9.78
2022-10-30T00:11:22.822Z,9.78
2022-10-30T00:11:33.331Z,9.78
2022-10-30T00:11:43.853Z,9.78
2022-10-30T00:11:54.369Z,9.78
2022-10-30T00:12:04.872Z,9.78
2022-10-30T00:12:15.383Z,9.78
2022-10-30T00:12:25.904Z,9.78
2022-10-30T00:12:36.418Z,9.78
2022-10-30T00:12:46.924Z,9.76
2022-10-30T00:12:57.448Z,9.76
2022-10-30T00:13:07.947Z,9.75
2022-10-30T00:13:18.465Z,9.78
2022-10-30T00:13:28.995Z,9.78
2022-10-30T00:13:39.496Z,9.76
2022-10-30T00:13:50.081Z,9.78
2022-10-30T00:14:00.508Z,9.76
2022-10-30T00:14:11.020Z,9.76
2022-10-30T00:14:21.536Z,9.76
2022-10-30T00:14:32.051Z,9.75
2022-10-30T00:14:42.550Z,9.78
2022-10-30T00:14:53.075Z,9.75
2022-10-30T00:15:03.581Z,9.75
2022-10-30T00:15:14.099Z,9.75
2022-10-30T00:15:24.599Z,9.76
2022-10-30T00:15:35.135Z,9.74
2022-10-30T00:15:45.627Z,9.74
2022-10-30T00:15:56.152Z,9.75
2022-10-30T00:16:06.654Z,9.74
2022-10-30T00:16:17.216Z,9.72
2022-10-30T00:16:27.682Z,9.75
2022-10-30T00:16:38.190Z,9.75
2022-10-30T00:16:48.725Z,9.75
2022-10-30T00:16:59.222Z,9.75
2022-10-30T00:17:09.727Z,9.74
2022-10-30T00:17:20.243Z,9.74
2022-10-30T00:17:30.759Z,9.74
2022-10-30T00:17:41.262Z,9.75
2022-10-30T00:17:51.775Z,9.75
2022-10-30T00:18:02.285Z,9.75
2022-10-30T00:18:12.800Z,9.76
2022-10-30T00:18:23.315Z,9.76
2022-10-30T00:18:33.848Z,9.76
2022-10-30T00:18:44.334Z,9.76
2022-10-30T00:18:54.852Z,9.79
2022-10-30T00:19:05.363Z,9.78
2022-10-30T00:19:15.878Z,9.83
2022-10-30T00:19:26.393Z,9.83
2022-10-30T00:19:36.904Z,9.83
2022-10-30T00:19:47.415Z,9.86
2022-10-30T00:19:57.936Z,9.86
2022-10-30T00:20:08.442Z,9.86
2022-10-30T00:20:18.957Z,9.84
2022-10-30T00:20:29.473Z,9.84
2022-10-30T00:20:39.984Z,9.86
2022-10-30T00:20:50.625Z,9.86
2022-10-30T00:21:11.517Z,9.86
2022-10-30T00:21:22.039Z,9.87
2022-10-30T00:21:32.549Z,9.87
2022-10-30T00:21:43.051Z,9.86
2022-10-30T00:21:53.577Z,9.87
2022-10-30T00:22:22.828Z,9.87
2022-10-30T00:22:33.329Z,9.87
2022-10-30T00:22:43.843Z,9.86
2022-10-30T00:22:54.752Z,9.87
2022-10-30T00:23:04.886Z,9.87
2022-10-30T00:23:15.382Z,9.87
2022-10-30T00:23:25.895Z,9.87
2022-10-30T00:23:36.405Z,9.87
2022-10-30T00:23:46.918Z,9.87
2022-10-30T00:23:57.429Z,9.87
2022-10-30T00:24:07.948Z,9.89
2022-10-30T00:24:18.475Z,9.89
2022-10-30T00:24:29.263Z,9.91
2022-10-30T00:24:39.485Z,9.90
2022-10-30T00:24:50.010Z,9.91
2022-10-30T00:25:00.509Z,9.91
2022-10-30T00:25:11.033Z,9.91
2022-10-30T00:25:21.531Z,9.91
2022-10-30T00:25:32.051Z,9.94
2022-10-30T00:25:42.552Z,9.93
2022-10-30T00:25:53.067Z,9.96
2022-10-30T00:26:03.581Z,9.96
2022-10-30T00:26:14.094Z,9.96
2022-10-30T00:26:24.608Z,9.96
2022-10-30T00:26:35.120Z,9.96
2022-10-30T00:26:45.649Z,9.97
2022-10-30T00:26:56.153Z,9.99
2022-10-30T00:27:06.654Z,10.01
2022-10-30T00:27:17.179Z,10.02
2022-10-30T00:27:27.687Z,10.01
2022-10-30T00:27:38.199Z,10.02
2022-10-30T00:27:48.705Z,10.04
2022-10-30T00:27:59.220Z,10.04
2022-10-30T00:28:09.734Z,10.02
2022-10-30T00:28:20.265Z,10.02
2022-10-30T00:28:30.764Z,10.04
2022-10-30T00:28:41.274Z,10.04
2022-10-30T00:28:51.821Z,10.04
2022-10-30T00:29:02.298Z,10.05
2022-10-30T00:29:12.809Z,10.04
2022-10-30T00:29:23.327Z,10.05
2022-10-30T00:29:33.845Z,10.05
2022-10-30T00:29:44.355Z,10.05
2022-10-30T00:29:54.859Z,10.04
2022-10-30T00:30:05.416Z,10.04
2022-10-30T00:30:15.879Z,10.07
2022-10-30T00:30:26.401Z,10.05
2022-10-30T00:30:36.907Z,10.05
2022-10-30T00:30:47.422Z,10.05
2022-10-30T00:30:57.930Z,10.07
2022-10-30T00:31:08.448Z,10.05
2022-10-30T00:31:18.964Z,10.07
2022-10-30T00:31:29.470Z,10.08
2022-10-30T00:31:39.980Z,10.07
2022-10-30T00:31:50.501Z,10.07
2022-10-30T00:32:01.003Z,10.07
2022-10-30T00:32:11.524Z,10.07
2022-10-30T00:32:22.025Z,10.07
2022-10-30T00:32:32.542Z,10.08
2022-10-30T00:32:43.059Z,10.07
2022-10-30T00:32:53.577Z,10.08
2022-10-30T00:33:04.075Z,10.07
2022-10-30T00:33:14.587Z,10.08
2022-10-30T00:33:25.105Z,10.07
2022-10-30T00:33:35.619Z,10.09
2022-10-30T00:33:46.145Z,10.08
2022-10-30T00:33:56.664Z,10.09
2022-10-30T00:34:07.159Z,10.11
2022-10-30T00:34:17.671Z,10.11
2022-10-30T00:34:28.181Z,10.09
2022-10-30T00:34:38.700Z,10.11
2022-10-30T00:34:49.222Z,10.11
2022-10-30T00:34:59.727Z,10.12
2022-10-30T00:35:10.233Z,10.12
2022-10-30T00:35:20.748Z,10.12
2022-10-30T00:35:31.385Z,10.12
2022-10-30T00:35:41.846Z,10.12
2022-10-30T00:35:52.295Z,10.12
2022-10-30T00:36:02.823Z,10.12
2022-10-30T00:36:13.308Z,10.14
2022-10-30T00:36:23.826Z,10.14
2022-10-30T00:36:34.339Z,10.14
2022-10-30T00:36:44.859Z,10.14
2022-10-30T00:36:55.367Z,10.17
2022-10-30T00:37:05.886Z,10.17
2022-10-30T00:37:16.397Z,10.17
2022-10-30T00:37:26.911Z,10.17
2022-10-30T00:37:37.436Z,10.18
2022-10-30T00:37:47.938Z,10.18
2022-10-30T00:37:58.854Z,10.22
2022-10-30T00:38:08.998Z,10.20
2022-10-30T00:38:19.480Z,10.18
2022-10-30T00:38:29.992Z,10.22
2022-10-30T00:38:40.491Z,10.22
2022-10-30T00:38:51.007Z,10.20
2022-10-30T00:39:01.529Z,10.22
2022-10-30T00:39:12.037Z,10.20
2022-10-30T00:39:22.543Z,10.22
2022-10-30T00:39:33.072Z,10.22
2022-10-30T00:39:43.569Z,10.25
2022-10-30T00:39:54.094Z,10.22
2022-10-30T00:40:04.614Z,10.23
2022-10-30T00:40:15.120Z,10.23
2022-10-30T00:40:25.618Z,10.23
2022-10-30T00:40:36.138Z,10.23
2022-10-30T00:40:46.650Z,10.23
2022-10-30T00:40:57.152Z,10.25
2022-10-30T00:41:07.668Z,10.23
2022-10-30T00:41:18.180Z,10.23
2022-10-30T00:41:28.697Z,10.25
2022-10-30T00:41:39.202Z,10.23
2022-10-30T00:41:49.718Z,10.23
2022-10-30T00:42:00.229Z,10.22
2022-10-30T00:42:10.740Z,10.23
2022-10-30T00:42:21.263Z,10.25
2022-10-30T00:42:31.760Z,10.22
2022-10-30T00:42:42.285Z,10.25
2022-10-30T00:42:52.787Z,10.25
2022-10-30T00:43:03.308Z,10.23
2022-10-30T00:43:13.843Z,10.25
2022-10-30T00:43:24.336Z,10.23
2022-10-30T00:43:34.834Z,10.23
2022-10-30T00:43:45.350Z,10.23
2022-10-30T00:43:55.862Z,10.25
2022-10-30T00:44:06.384Z,10.25
2022-10-30T00:44:16.898Z,10.23
2022-10-30T00:44:27.435Z,10.26
2022-10-30T00:44:37.937Z,10.26
2022-10-30T00:44:48.431Z,10.25
2022-10-30T00:44:58.958Z,10.26
2022-10-30T00:45:09.474Z,10.25
2022-10-30T00:45:19.979Z,10.25
2022-10-30T00:45:30.490Z,10.26
2022-10-30T00:45:41.001Z,10.27
2022-10-30T00:45:51.518Z,10.27
2022-10-30T00:46:02.030Z,10.27
2022-10-30T00:46:12.544Z,10.27
2022-10-30T00:46:23.056Z,10.27
2022-10-30T00:46:33.570Z,10.27
2022-10-30T00:46:44.078Z,10.27
2022-10-30T00:46:54.592Z,10.26
2022-10-30T00:47:05.102Z,10.27
2022-10-30T00:47:15.620Z,10.27
2022-10-30T00:47:26.137Z,10.27
2022-10-30T00:47:36.637Z,10.27
2022-10-30T00:47:47.148Z,10.26
2022-10-30T00:47:57.831Z,10.27
2022-10-30T00:48:08.180Z,10.26
2022-10-30T00:48:18.698Z,10.27
2022-10-30T00:48:29.205Z,10.27
2022-10-30T00:48:39.718Z,10.29
2022-10-30T00:48:50.232Z,10.27
2022-10-30T00:49:00.786Z,10.30
2022-10-30T00:49:11.262Z,10.30
2022-10-30T00:49:21.774Z,10.29
2022-10-30T00:49:32.282Z,10.30
2022-10-30T00:49:42.799Z,10.29
2022-10-30T00:49:53.308Z,10.30
2022-10-30T00:50:03.835Z,10.32
2022-10-30T00:50:14.416Z,10.30
2022-10-30T00:50:24.855Z,10.32
2022-10-30T00:50:35.363Z,10.29
2022-10-30T00:50:45.873Z,10.30
2022-10-30T00:50:56.394Z,10.32
2022-10-30T00:51:06.929Z,10.32
2022-10-30T00:51:17.416Z,10.33
2022-10-30T00:51:27.933Z,10.30
2022-10-30T00:51:38.454Z,10.32
2022-10-30T00:51:48.955Z,10.32
2022-10-30T00:51:59.467Z,10.33
2022-10-30T00:52:09.981Z,10.32
2022-10-30T00:52:20.495Z,10.32
2022-10-30T00:52:31.019Z,10.33
2022-10-30T00:52:41.519Z,10.33
2022-10-30T00:52:52.030Z,10.33
2022-10-30T00:53:02.548Z,10.33
2022-10-30T00:53:13.067Z,10.33
2022-10-30T00:53:23.582Z,10.34
2022-10-30T00:53:34.090Z,10.33
2022-10-30T00:53:44.605Z,10.34
2022-10-30T00:53:55.119Z,10.33
2022-10-30T00:54:05.655Z,10.33
2022-10-30T00:54:16.138Z,10.34
2022-10-30T00:54:26.661Z,10.33
2022-10-30T00:54:37.170Z,10.34
2022-10-30T00:54:47.684Z,10.34
2022-10-30T00:54:58.199Z,10.33
2022-10-30T00:55:08.732Z,10.33
2022-10-30T00:55:19.224Z,10.36
2022-10-30T00:55:29.738Z,10.36
2022-10-30T00:55:40.254Z,10.34
2022-10-30T00:55:50.766Z,10.34
2022-10-30T00:56:01.277Z,10.34
2022-10-30T00:56:11.797Z,10.36
2022-10-30T00:56:22.311Z,10.36
2022-10-30T00:56:32.835Z,10.36
2022-10-30T00:56:43.333Z,10.36
2022-10-30T00:56:53.853Z,10.38
2022-10-30T00:57:04.378Z,10.36
2022-10-30T00:57:14.881Z,10.40
2022-10-30T00:57:25.397Z,10.40
2022-10-30T00:57:35.915Z,10.40
2022-10-30T00:57:46.427Z,10.40
2022-10-30T00:57:56.941Z,10.41
2022-10-30T00:58:07.461Z,10.41
2022-10-30T00:58:17.987Z,10.41
2022-10-30T00:58:28.492Z,10.42
2022-10-30T00:58:39.014Z,10.41
2022-10-30T00:58:49.518Z,10.42
2022-10-30T00:59:00.046Z,10.42
2022-10-30T00:59:10.548Z,10.44
2022-10-30T00:59:21.058Z,10.41
2022-10-30T00:59:31.577Z,10.41
2022-10-30T00:59:42.085Z,10.42
2022-10-30T00:59:52.632Z,10.42
2022-10-30T01:00:03.111Z,10.44
2022-10-30T01:00:13.619Z,10.44
2022-10-30T01:00:24.139Z,10.40
2022-10-30T01:00:34.650Z,10.44
2022-10-30T01:00:45.163Z,10.42
2022-10-30T01:00:55.720Z,10.45
2022-10-30T01:01:06.202Z,10.44
2022-10-30T01:01:16.876Z,10.44
2022-10-30T01:01:27.313Z,10.45
2022-10-30T01:01:37.937Z,10.45
2022-10-30T01:01:48.448Z,10.44
2022-10-30T01:01:58.911Z,10.45
2022-10-30T01:02:09.410Z,10.47
2022-10-30T01:02:19.908Z,10.45
2022-10-30T01:02:30.419Z,10.47
2022-10-30T01:02:40.890Z,10.45
2022-10-30T01:02:51.317Z,10.47
2022-10-30T01:03:02.085Z,10.47
2022-10-30T01:03:12.340Z,10.47
2022-10-30T01:03:22.861Z,10.48
2022-10-30T01:03:33.372Z,10.48
2022-10-30T01:03:43.877Z,10.48
2022-10-30T01:03:54.394Z,10.51
2022-10-30T01:04:04.904Z,10.48
2022-10-30T01:04:15.449Z,10.48
2022-10-30T01:04:29.176Z,10.51
2022-10-30T01:04:36.443Z,10.51
2022-10-30T01:04:46.957Z,10.48
2022-10-30T01:04:57.567Z,10.47
2022-10-30T01:05:08.001Z,10.51
2022-10-30T01:05:18.495Z,10.51
2022-10-30T01:05:29.009Z,10.48
2022-10-30T01:05:39.521Z,10.48
2022-10-30T01:05:50.048Z,10.51
2022-10-30T01:06:00.549Z,10.51
2022-10-30T01:06:11.087Z,10.51
2022-10-30T01:06:21.574Z,10.51
2022-10-30T01:06:32.087Z,10.52
2022-10-30T01:06:42.606Z,10.52
2022-10-30T01:06:53.116Z,10.51
2022-10-30T01:07:03.629Z,10.51
2022-10-30T01:07:14.176Z,10.52
2022-10-30T01:07:24.667Z,10.52
2022-10-30T01:07:35.174Z,10.52
2022-10-30T01:07:45.699Z,10.51
2022-10-30T01:07:56.504Z,10.52
2022-10-30T01:08:06.733Z,10.51
2022-10-30T01:08:17.285Z,10.51
2022-10-30T01:08:27.806Z,10.51
2022-10-30T01:08:38.381Z,10.51
2022-10-30T01:08:48.834Z,10.51
2022-10-30T01:09:00.269Z,10.53
2022-10-30T01:09:09.863Z,10.52
2022-10-30T01:09:20.407Z,10.52
2022-10-30T01:09:30.836Z,10.52
2022-10-30T01:09:41.355Z,10.52
2022-10-30T01:09:51.864Z,10.52
2022-10-30T01:10:02.377Z,10.52
2022-10-30T01:10:12.899Z,10.52
2022-10-30T01:10:23.404Z,10.51
2022-10-30T01:10:33.919Z,10.52
2022-10-30T01:10:44.431Z,10.53
2022-10-30T01:10:54.975Z,10.52
2022-10-30T01:11:05.462Z,10.53
2022-10-30T01:11:15.969Z,10.55
2022-10-30T01:11:26.537Z,10.53
2022-10-30T01:11:37.014Z,10.53
2022-10-30T01:11:47.516Z,10.55
2022-10-30T01:11:58.037Z,10.55
2022-10-30T01:12:08.542Z,10.55
2022-10-30T01:12:19.061Z,10.53
2022-10-30T01:12:29.599Z,10.53
2022-10-30T01:12:40.090Z,10.53
2022-10-30T01:12:50.606Z,10.56
2022-10-30T01:13:01.125Z,10.53
2022-10-30T01:13:11.637Z,10.55
2022-10-30T01:13:22.154Z,10.55
2022-10-30T01:13:32.673Z,10.56
2022-10-30T01:13:43.178Z,10.55
2022-10-30T01:13:53.695Z,10.55
2022-10-30T01:14:04.214Z,10.55
2022-10-30T01:14:14.728Z,10.56
2022-10-30T01:14:25.267Z,10.56
2022-10-30T01:14:35.761Z,10.56
2022-10-30T01:14:46.269Z,10.55
2022-10-30T01:14:56.791Z,10.56
2022-10-30T01:15:07.306Z,10.59
2022-10-30T01:15:17.814Z,10.56
2022-10-30T01:15:28.344Z,10.59
2022-10-30T01:15:38.846Z,10.59
2022-10-30T01:15:49.377Z,10.60
2022-10-30T01:15:59.871Z,10.59
2022-10-30T01:16:10.387Z,10.60
2022-10-30T01:16:20.909Z,10.60
2022-10-30T01:16:31.425Z,10.61
2022-10-30T01:16:41.970Z,10.60
2022-10-30T01:16:52.461Z,10.61
2022-10-30T01:17:02.966Z,10.60
2022-10-30T01:17:13.483Z,10.63
2022-10-30T01:17:23.994Z,10.63
2022-10-30T01:17:34.513Z,10.61
2022-10-30T01:17:45.021Z,10.63
2022-10-30T01:17:55.938Z,10.63
2022-10-30T01:18:06.058Z,10.63
2022-10-30T01:18:16.571Z,10.64
2022-10-30T01:18:27.090Z,10.63
2022-10-30T01:18:37.602Z,10.63
2022-10-30T01:18:48.110Z,10.66
2022-10-30T01:18:58.628Z,10.64
2022-10-30T01:19:09.174Z,10.66
2022-10-30T01:19:19.660Z,10.67
2022-10-30T01:19:30.168Z,10.66
2022-10-30T01:19:40.678Z,10.66
2022-10-30T01:19:51.323Z,10.66
2022-10-30T01:20:12.224Z,10.67
2022-10-30T01:20:22.741Z,10.67
2022-10-30T01:20:33.250Z,10.67
2022-10-30T01:20:43.764Z,10.68
2022-10-30T01:20:54.280Z,10.67
2022-10-30T01:21:04.793Z,10.67
2022-10-30T01:21:15.323Z,10.67
2022-10-30T01:21:25.827Z,10.67
2022-10-30T01:21:36.332Z,10.67
2022-10-30T01:21:46.846Z,10.66
2022-10-30T01:21:57.358Z,10.67
2022-10-30T01:22:07.875Z,10.67
2022-10-30T01:22:18.383Z,10.67
2022-10-30T01:22:28.895Z,10.67
2022-10-30T01:22:39.412Z,10.68
2022-10-30T01:22:49.930Z,10.66
2022-10-30T01:23:00.738Z,10.66
2022-10-30T01:23:10.953Z,10.66
2022-10-30T01:23:21.467Z,10.67
2022-10-30T01:23:31.986Z,10.67
2022-10-30T01:23:42.544Z,10.67
2022-10-30T01:23:53.010Z,10.67
2022-10-30T01:24:03.526Z,10.68
2022-10-30T01:24:14.061Z,10.66
2022-10-30T01:24:24.556Z,10.68
2022-10-30T01:24:35.075Z,10.67
2022-10-30T01:24:45.578Z,10.67
2022-10-30T01:24:56.099Z,10.67
2022-10-30T01:25:06.604Z,10.67
2022-10-30T01:25:17.125Z,10.68
2022-10-30T01:25:27.636Z,10.68
2022-10-30T01:25:38.146Z,10.67
2022-10-30T01:25:48.661Z,10.68
2022-10-30T01:25:59.185Z,10.68
2022-10-30T01:26:09.680Z,10.67
2022-10-30T01:26:20.208Z,10.67
2022-10-30T01:26:30.721Z,10.68
2022-10-30T01:26:41.231Z,10.68
2022-10-30T01:26:51.740Z,10.68
2022-10-30T01:27:02.257Z,10.70
2022-10-30T01:27:12.773Z,10.68
2022-10-30T01:27:23.311Z,10.68
2022-10-30T01:27:33.804Z,10.67
2022-10-30T01:27:44.310Z,10.68
2022-10-30T01:27:54.839Z,10.68
2022-10-30T01:28:05.338Z,10.71
2022-10-30T01:28:15.853Z,10.70
2022-10-30T01:28:26.369Z,10.70
2022-10-30T01:28:36.909Z,10.70
2022-10-30T01:28:47.406Z,10.70
2022-10-30T01:28:57.919Z,10.70
2022-10-30T01:29:08.424Z,10.71
2022-10-30T01:29:18.961Z,10.71
2022-10-30T01:29:29.449Z,10.71
2022-10-30T01:29:39.968Z,10.71
2022-10-30T01:29:50.484Z,10.71
2022-10-30T01:30:00.999Z,10.70
2022-10-30T01:30:11.506Z,10.71
2022-10-30T01:30:22.024Z,10.73
2022-10-30T01:30:32.531Z,10.71
2022-10-30T01:30:43.045Z,10.71
2022-10-30T01:30:53.567Z,10.73
2022-10-30T01:31:04.086Z,10.70
2022-10-30T01:31:14.610Z,10.73
2022-10-30T01:31:25.142Z,10.71
2022-10-30T01:31:35.630Z,10.71
2022-10-30T01:31:46.129Z,10.73
2022-10-30T01:31:56.652Z,10.71
2022-10-30T01:32:07.158Z,10.73
2022-10-30T01:32:17.683Z,10.73
2022-10-30T01:32:28.190Z,10.73
2022-10-30T01:32:38.703Z,10.71
2022-10-30T01:32:49.218Z,10.73
2022-10-30T01:33:00.227Z,10.74
2022-10-30T01:33:10.250Z,10.76
2022-10-30T01:33:20.770Z,10.74
2022-10-30T01:33:31.281Z,10.74
2022-10-30T01:33:41.793Z,10.76
2022-10-30T01:33:52.338Z,10.76
2022-10-30T01:34:02.819Z,10.74
2022-10-30T01:34:13.331Z,10.74
2022-10-30T01:34:23.853Z,10.74
2022-10-30T01:34:34.434Z,10.76
2022-10-30T01:34:44.904Z,10.76
2022-10-30T01:34:55.399Z,10.74
2022-10-30T01:35:05.907Z,10.74
2022-10-30T01:35:16.425Z,10.74
2022-10-30T01:35:26.943Z,10.74
2022-10-30T01:35:37.451Z,10.74
2022-10-30T01:35:47.968Z,10.76
2022-10-30T01:35:58.492Z,10.74
2022-10-30T01:36:08.996Z,10.74
2022-10-30T01:36:19.531Z,10.74
2022-10-30T01:36:30.035Z,10.76
2022-10-30T01:36:40.545Z,10.74
2022-10-30T01:36:51.068Z,10.74
2022-10-30T01:37:01.598Z,10.74
2022-10-30T01:37:12.091Z,10.74
2022-10-30T01:37:22.610Z,10.74
2022-10-30T01:37:33.130Z,10.76
2022-10-30T01:37:43.641Z,10.74
2022-10-30T01:37:54.316Z,10.74
2022-10-30T01:38:04.669Z,10.73
2022-10-30T01:38:15.193Z,10.74
2022-10-30T01:38:25.708Z,10.74
2022-10-30T01:38:36.219Z,10.74
2022-10-30T01:38:46.739Z,10.73
2022-10-30T01:38:57.249Z,10.74
2022-10-30T01:39:07.785Z,10.73
2022-10-30T01:39:18.272Z,10.74
2022-10-30T01:39:28.790Z,10.74
2022-10-30T01:39:39.304Z,10.73
2022-10-30T01:39:49.822Z,10.73
2022-10-30T01:40:00.335Z,10.71
2022-10-30T01:40:10.854Z,10.73
2022-10-30T01:40:21.365Z,10.73
2022-10-30T01:40:31.889Z,10.73
2022-10-30T01:40:42.403Z,10.73
2022-10-30T01:40:52.912Z,10.71
2022-10-30T01:41:03.428Z,10.73
2022-10-30T01:41:13.944Z,10.73
2022-10-30T01:41:24.460Z,10.73
2022-10-30T01:41:34.981Z,10.73
2022-10-30T01:41:45.485Z,10.73
2022-10-30T01:41:56.003Z,10.73
2022-10-30T01:42:06.524Z,10.71
2022-10-30T01:42:17.039Z,10.71
2022-10-30T01:42:27.561Z,10.71
2022-10-30T01:42:38.057Z,10.73
2022-10-30T01:42:48.585Z,10.73
2022-10-30T01:42:59.129Z,10.71
2022-10-30T01:43:09.644Z,10.71
2022-10-30T01:43:20.120Z,10.71
2022-10-30T01:43:30.632Z,10.73
2022-10-30T01:43:41.156Z,10.71
2022-10-30T01:43:51.658Z,10.71
2022-10-30T01:44:02.178Z,10.73
2022-10-30T01:44:12.694Z,10.71
2022-10-30T01:44:23.202Z,10.68
2022-10-30T01:44:33.718Z,10.71
2022-10-30T01:44:44.227Z,10.70
2022-10-30T01:44:54.741Z,10.70
2022-10-30T01:45:05.265Z,10.71
2022-10-30T01:45:15.772Z,10.71
2022-10-30T01:45:26.288Z,10.71
2022-10-30T01:45:36.798Z,10.71
2022-10-30T01:45:47.314Z,10.71
2022-10-30T01:45:57.828Z,10.71
2022-10-30T01:46:08.342Z,10.70
2022-10-30T01:46:18.858Z,10.71
2022-10-30T01:46:29.377Z,10.71
2022-10-30T01:46:39.887Z,10.71
2022-10-30T01:46:50.393Z,10.71
2022-10-30T01:47:00.908Z,10.71
2022-10-30T01:47:11.426Z,10.71
2022-10-30T01:47:21.946Z,10.73
2022-10-30T01:47:32.481Z,10.71
2022-10-30T01:47:42.974Z,10.71
2022-10-30T01:47:53.488Z,10.71
2022-10-30T01:48:04.055Z,10.73
2022-10-30T01:48:14.522Z,10.73
2022-10-30T01:48:25.057Z,10.73
2022-10-30T01:48:35.553Z,10.74
2022-10-30T01:48:46.067Z,10.71
2022-10-30T01:48:56.583Z,10.74
2022-10-30T01:49:07.102Z,10.73
2022-10-30T01:49:17.681Z,10.76
2022-10-30T01:49:28.128Z,10.73
2022-10-30T01:49:38.651Z,10.74
2022-10-30T01:49:49.158Z,10.74
2022-10-30T01:49:59.668Z,10.74
2022-10-30T01:50:10.183Z,10.73
2022-10-30T01:50:20.706Z,10.74
2022-10-30T01:50:31.236Z,10.73
2022-10-30T01:50:41.732Z,10.76
2022-10-30T01:50:52.253Z,10.76
2022-10-30T01:51:02.766Z,10.74
2022-10-30T01:51:13.268Z,10.74
2022-10-30T01:51:23.803Z,10.74
2022-10-30T01:51:34.295Z,10.76
2022-10-30T01:51:44.816Z,10.74
2022-10-30T01:51:55.333Z,10.74
2022-10-30T01:52:05.841Z,10.76
2022-10-30T01:52:16.357Z,10.74
2022-10-30T01:52:26.863Z,10.74
2022-10-30T01:52:37.378Z,10.74
2022-10-30T01:52:47.896Z,10.74
2022-10-30T01:52:58.689Z,10.76
2022-10-30T01:53:08.939Z,10.74
2022-10-30T01:53:19.443Z,10.74
2022-10-30T01:53:29.953Z,10.73
2022-10-30T01:53:40.479Z,10.76
2022-10-30T01:53:50.972Z,10.76
2022-10-30T01:54:01.510Z,10.78
2022-10-30T01:54:12.003Z,10.76
2022-10-30T01:54:22.524Z,10.78
2022-10-30T01:54:33.035Z,10.76
2022-10-30T01:54:43.551Z,10.78
2022-10-30T01:54:54.065Z,10.76
2022-10-30T01:55:04.589Z,10.78
2022-10-30T01:55:15.099Z,10.76
2022-10-30T01:55:25.596Z,10.78
2022-10-30T01:55:36.120Z,10.78
2022-10-30T01:55:46.631Z,10.79
2022-10-30T01:55:57.147Z,10.79
2022-10-30T01:56:07.662Z,10.78
2022-10-30T01:56:18.184Z,10.79
2022-10-30T01:56:28.694Z,10.78
2022-10-30T01:56:39.199Z,10.78
2022-10-30T01:56:49.720Z,10.78
2022-10-30T01:57:00.231Z,10.79
2022-10-30T01:57:10.743Z,10.78
2022-10-30T01:57:21.257Z,10.79
2022-10-30T01:57:31.771Z,10.74
2022-10-30T01:57:42.298Z,10.78
2022-10-30T01:57:52.807Z,10.76
2022-10-30T01:58:03.322Z,10.76
2022-10-30T01:58:13.831Z,10.78
2022-10-30T01:58:24.352Z,10.76
2022-10-30T01:58:34.861Z,10.79
2022-10-30T01:58:45.381Z,10.79
2022-10-30T01:58:55.912Z,10.78
2022-10-30T01:59:06.411Z,10.78
2022-10-30T01:59:16.915Z,10.76
2022-10-30T01:59:27.439Z,10.78
2022-10-30T01:59:37.946Z,10.76
2022-10-30T01:59:48.464Z,10.76
2022-10-30T01:59:58.975Z,10.78
2022-10-30T02:00:09.494Z,10.78
2022-10-30T02:00:20.008Z,10.76
2022-10-30T02:00:30.534Z,10.78
2022-10-30T02:00:41.038Z,10.78
2022-10-30T02:00:51.553Z,10.76
2022-10-30T02:01:02.189Z,10.78
2022-10-30T02:01:12.779Z,10.78
2022-10-30T02:01:23.273Z,10.76
2022-10-30T02:01:33.747Z,10.76
2022-10-30T02:01:44.302Z,10.76
2022-10-30T02:01:54.809Z,10.76
2022-10-30T02:02:05.413Z,10.76
2022-10-30T02:02:15.774Z,10.76
2022-10-30T02:02:26.424Z,10.76
2022-10-30T02:02:36.962Z,10.76
2022-10-30T02:02:47.404Z,10.76
2022-10-30T02:02:57.944Z,10.74
2022-10-30T02:03:08.251Z,10.76
2022-10-30T02:03:18.775Z,10.74
2022-10-30T02:03:29.316Z,10.76
2022-10-30T02:03:39.807Z,10.74
2022-10-30T02:03:50.419Z,10.74
2022-10-30T02:04:00.896Z,10.76
2022-10-30T02:04:11.342Z,10.74
2022-10-30T02:04:21.856Z,10.74
2022-10-30T02:04:32.373Z,10.76
2022-10-30T02:04:42.892Z,10.76
2022-10-30T02:04:53.400Z,10.74
2022-10-30T02:05:03.919Z,10.76
2022-10-30T02:05:14.439Z,10.74
2022-10-30T02:05:24.952Z,10.74
2022-10-30T02:05:35.451Z,10.76
2022-10-30T02:05:45.968Z,10.76
2022-10-30T02:05:56.480Z,10.78
2022-10-30T02:06:06.996Z,10.76
2022-10-30T02:06:17.515Z,10.78
2022-10-30T02:06:28.045Z,10.78
2022-10-30T02:06:38.536Z,10.79
2022-10-30T02:06:49.066Z,10.78
2022-10-30T02:06:59.597Z,10.78
2022-10-30T02:07:10.091Z,10.79
2022-10-30T02:07:20.605Z,10.81
2022-10-30T02:07:31.118Z,10.79
2022-10-30T02:07:41.627Z,10.81
2022-10-30T02:07:52.140Z,10.79
2022-10-30T02:08:02.699Z,10.82
2022-10-30T02:08:13.187Z,10.81
2022-10-30T02:08:23.685Z,10.82
2022-10-30T02:08:34.203Z,10.82
2022-10-30T02:08:44.709Z,10.82
2022-10-30T02:08:55.222Z,10.82
2022-10-30T02:09:05.752Z,10.81
2022-10-30T02:09:16.249Z,10.81
2022-10-30T02:09:26.757Z,10.81
2022-10-30T02:09:37.280Z,10.82
2022-10-30T02:09:47.792Z,10.82
2022-10-30T02:09:58.306Z,10.82
2022-10-30T02:10:08.814Z,10.82
2022-10-30T02:10:19.329Z,10.82
2022-10-30T02:10:29.842Z,10.81
2022-10-30T02:10:40.361Z,10.82
2022-10-30T02:10:50.873Z,10.81
2022-10-30T02:11:01.391Z,10.81
2022-10-30T02:11:11.929Z,10.82
2022-10-30T02:11:22.426Z,10.81
2022-10-30T02:11:32.935Z,10.81
2022-10-30T02:11:43.459Z,10.81
2022-10-30T02:11:53.967Z,10.82
2022-10-30T02:12:04.489Z,10.82
2022-10-30T02:12:14.997Z,10.81
2022-10-30T02:12:25.518Z,10.81
2022-10-30T02:12:36.023Z,10.81
2022-10-30T02:12:46.544Z,10.81
2022-10-30T02:12:57.057Z,10.79
2022-10-30T02:13:07.575Z,10.81
2022-10-30T02:13:18.106Z,10.79
2022-10-30T02:13:28.610Z,10.79
2022-10-30T02:13:39.115Z,10.79
2022-10-30T02:13:49.636Z,10.78
2022-10-30T02:14:00.147Z,10.78
2022-10-30T02:14:10.673Z,10.79
2022-10-30T02:14:21.180Z,10.78
2022-10-30T02:14:31.688Z,10.76
2022-10-30T02:14:42.197Z,10.78
2022-10-30T02:14:52.734Z,10.79
2022-10-30T02:15:03.245Z,10.76
2022-10-30T02:15:13.756Z,10.78
2022-10-30T02:15:24.253Z,10.76
2022-10-30T02:15:34.773Z,10.76
2022-10-30T02:15:45.283Z,10.76
2022-10-30T02:15:55.810Z,10.74
2022-10-30T02:16:06.325Z,10.74
2022-10-30T02:16:16.848Z,10.74
2022-10-30T02:16:27.333Z,10.74
2022-10-30T02:16:37.854Z,10.74
2022-10-30T02:16:48.361Z,10.74
2022-10-30T02:16:58.877Z,10.73
2022-10-30T02:17:09.397Z,10.74